Time;durP1;ratioP1;P1;durP2;ratioP2;P2;SDS_P1;SDS_P2;PMS_P1;PMS_P2;Temp;Humidity;BMP_temperature;BMP_pressure;BME280_temperature;BME280_humidity;BME280_pressure;Samples;Min_cycle;Max_cycle;Signal;HPM_P1;HPM_P2
2022/06/24 00:01:04;;;;;;;;;;;;;;;19.10;60.25;99617.31;4456870;32;20001;-86
2022/06/24 00:03:29;;;;;;;;;;;;;;;19.21;60.25;99613.94;4457775;32;19985;-85
2022/06/24 00:05:55;;;;;;;;;;;;;;;19.15;60.26;99615.19;4466614;32;19989;-86
2022/06/24 00:08:21;;;;;;;;;;;;;;;19.09;60.25;99615.62;4443669;32;19993;-86
2022/06/24 00:10:46;;;;;;;;;;;;;;;19.07;60.25;99609.59;4443787;32;20028;-86
2022/06/24 00:13:11;;;;;;;;;;;;;;;19.12;60.24;99615.41;4456385;32;22098;-86
2022/06/24 00:15:37;;;;;;;;;;;;;;;19.03;60.25;99613.41;4443535;32;19992;-86
2022/06/24 00:18:15;;;;;;;;;;;;;;;18.92;60.24;99621.19;4456640;32;20007;-86
2022/06/24 00:20:43;;;;;;;;;;;;;;;18.99;60.24;99625.13;4443684;32;20008;-86
2022/06/24 00:23:08;;;;;;;;;;;;;;;18.96;60.24;99625.34;4470906;32;19977;-86
2022/06/24 00:25:35;;;;;;;;;;;;;;;18.89;60.24;99618.78;4457341;32;20264;-86
2022/06/24 00:28:02;;;;;;;;;;;;;;;18.89;60.24;99618.78;4457220;32;19985;-86
2022/06/24 00:30:27;;;;;;;;;;;;;;;18.99;60.24;99625.13;4443551;32;20039;-87
2022/06/24 00:32:52;;;;;;;;;;;;;;;18.99;60.24;99619.84;4456314;32;20026;-86
2022/06/24 00:35:17;;;;;;;;;;;;;;;18.83;60.23;99622.69;4442387;32;30664;-86
2022/06/24 00:37:43;;;;;;;;;;;;;;;18.90;60.23;99620.47;4456387;32;20336;-86
2022/06/24 00:40:08;;;;;;;;;;;;;;;18.92;60.24;99622.03;4456853;32;20004;-85
2022/06/24 00:42:34;;;;;;;;;;;;;;;18.81;60.23;99621.94;4456247;32;20001;-86
2022/06/24 00:45:09;;;;;;;;;;;;;;;18.88;60.23;99619.72;4443018;32;21483;-85
2022/06/24 00:47:35;;;;;;;;;;;;;;;18.89;60.23;99622.25;4457251;32;20001;-87
2022/06/24 00:50:00;;;;;;;;;;;;;;;18.89;60.23;99621.41;4443062;32;20016;-87
2022/06/24 00:52:25;;;;;;;;;;;;;;;18.81;60.23;99615.81;4436632;32;19985;-86
2022/06/24 00:54:50;;;;;;;;;;;;;;;18.79;60.23;99615.94;4451242;32;23122;-86
2022/06/24 00:57:16;;;;;;;;;;;;;;;18.91;60.23;99616.88;4456625;32;20005;-85
2022/06/24 00:59:42;;;;;;;;;;;;;;;18.79;60.23;99607.19;4455936;32;24652;-85
2022/06/24 01:02:07;;;;;;;;;;;;;;;18.81;60.23;99613.19;4456555;32;20054;-86
2022/06/24 01:04:33;;;;;;;;;;;;;;;18.77;60.23;99609.06;4443454;32;20310;-86
2022/06/24 01:06:58;;;;;;;;;;;;;;;18.83;60.23;99604.22;4443356;32;20034;-87
2022/06/24 01:09:23;;;;;;;;;;;;;;;18.66;60.22;99607.16;4456142;32;25180;-86
2022/06/24 01:11:49;;;;;;;;;;;;;;;18.63;60.22;99607.34;4456046;32;23455;-87
2022/06/24 01:14:14;;;;;;;;;;;;;;;18.66;60.22;99608.00;4443412;32;19977;-86
2022/06/24 01:16:39;;;;;;;;;;;;;;;18.66;60.22;99605.34;4456998;32;20004;-87
2022/06/24 01:19:06;;;;;;;;;;;;;;;18.61;60.21;99601.31;4445014;32;19993;-87
2022/06/24 01:21:44;;;;;;;;;;;;;;;18.72;60.22;99603.28;4444719;32;19980;-87
2022/06/24 01:24:12;;;;;;;;;;;;;;;18.68;60.22;99605.25;4443095;32;19981;-86
2022/06/24 01:26:39;;;;;;;;;;;;;;;18.61;60.21;99609.22;4456397;32;20008;-87
2022/06/24 01:29:04;;;;;;;;;;;;;;;18.58;60.22;99607.66;4456300;32;19989;-86
2022/06/24 01:31:29;;;;;;;;;;;;;;;18.62;60.22;99600.38;4456196;32;19973;-87
2022/06/24 01:33:55;;;;;;;;;;;;;;;18.65;60.22;99595.75;4456465;32;19981;-86
2022/06/24 01:36:20;;;;;;;;;;;;;;;18.47;60.21;99601.41;4456023;32;19993;-86
2022/06/24 01:38:45;;;;;;;;;;;;;;;18.63;60.23;99596.81;4442970;32;20006;-86
2022/06/24 01:41:11;;;;;;;;;;;;;;;18.29;60.19;99600.84;4470331;32;20972;-86
2022/06/24 01:43:36;;;;;;;;;;;;;;;18.54;60.21;99594.78;4443306;32;20365;-86
2022/06/24 01:46:01;;;;;;;;;;;;;;;18.64;60.22;99583.53;4443092;32;20043;-86
2022/06/24 01:48:26;;;;;;;;;;;;;;;18.55;60.22;99592.03;4455230;32;29690;-86
2022/06/24 01:50:52;;;;;;;;;;;;;;;18.66;60.22;99588.69;4455509;32;24596;-86
2022/06/24 01:53:17;;;;;;;;;;;;;;;18.72;60.22;99585.66;4442343;32;25510;-86
2022/06/24 01:55:42;;;;;;;;;;;;;;;18.63;60.23;99584.47;4455507;32;23336;-86
2022/06/24 01:58:07;;;;;;;;;;;;;;;18.66;60.22;99581.63;4455996;32;20035;-86
2022/06/24 02:00:32;;;;;;;;;;;;;;;18.55;60.22;99581.50;4442906;32;20044;-85
2022/06/24 02:02:58;;;;;;;;;;;;;;;18.66;60.21;99586.06;4443825;32;26241;-85
2022/06/24 02:05:23;;;;;;;;;;;;;;;18.62;60.22;99584.53;4442151;32;20019;-87
2022/06/24 02:07:48;;;;;;;;;;;;;;;18.52;60.21;99581.69;4456011;32;20318;-87
2022/06/24 02:15:41;;;;;;;;;;;;;;;18.44;60.20;99585.78;4458745;32;20042;-86
2022/06/24 02:18:06;;;;;;;;;;;;;;;18.37;60.21;99596.75;4465342;32;19976;-87
2022/06/24 02:20:32;;;;;;;;;;;;;;;18.47;60.21;99586.44;4453909;32;19993;-86
2022/06/24 02:22:57;;;;;;;;;;;;;;;18.43;60.20;99579.66;4461460;32;20410;-86
2022/06/24 02:25:22;;;;;;;;;;;;;;;18.29;60.19;99585.88;4455626;32;26401;-86
2022/06/24 02:27:47;;;;;;;;;;;;;;;18.43;60.20;99590.22;4470097;32;20058;-87
2022/06/24 02:30:13;;;;;;;;;;;;;;;18.24;60.20;99589.75;4442451;32;20241;-86
2022/06/24 02:32:38;;;;;;;;;;;;;;;18.32;60.20;99592.72;4455448;32;19984;-86
2022/06/24 02:35:03;;;;;;;;;;;;;;;18.40;60.20;99590.41;4441836;32;19997;-86
2022/06/24 02:37:29;;;;;;;;;;;;;;;18.38;60.21;99597.59;4455344;32;20004;-87
2022/06/24 02:39:54;;;;;;;;;;;;;;;18.56;60.22;99592.88;4441983;32;27761;-86
2022/06/24 02:42:19;;;;;;;;;;;;;;;18.42;60.21;99599.91;4443037;32;25841;-85
2022/06/24 02:44:44;;;;;;;;;;;;;;;18.46;60.21;99595.31;4441683;32;25377;-86
2022/06/24 02:47:09;;;;;;;;;;;;;;;18.42;60.20;99599.06;4442614;32;20241;-87
2022/06/24 02:49:35;;;;;;;;;;;;;;;18.44;60.21;99593.69;4455421;32;20050;-86
2022/06/24 02:52:00;;;;;;;;;;;;;;;18.41;60.21;99598.22;4455200;32;19985;-86
2022/06/24 02:54:25;;;;;;;;;;;;;;;18.46;60.21;99590.03;4455092;32;19989;-86
2022/06/24 02:56:50;;;;;;;;;;;;;;;18.36;60.21;99594.22;4455160;32;20381;-87
2022/06/24 02:59:16;;;;;;;;;;;;;;;18.40;60.21;99595.69;4454641;32;20440;-86
2022/06/24 03:01:41;;;;;;;;;;;;;;;18.49;60.21;99595.09;4470118;32;19979;-86
2022/06/24 03:04:06;;;;;;;;;;;;;;;18.47;60.21;99594.34;4454456;32;24220;-85
2022/06/24 03:06:32;;;;;;;;;;;;;;;18.51;60.21;99597.63;4441650;32;26468;-86
2022/06/24 03:08:57;;;;;;;;;;;;;;;18.61;60.21;99598.69;4441256;32;27894;-87
2022/06/24 03:11:22;;;;;;;;;;;;;;;18.61;60.21;99599.53;4442182;32;19977;-86
2022/06/24 03:13:47;;;;;;;;;;;;;;;18.61;60.21;99593.41;4441455;32;28421;-86
2022/06/24 03:16:12;;;;;;;;;;;;;;;18.70;60.22;99601.59;4442093;32;25062;-85
2022/06/24 03:18:38;;;;;;;;;;;;;;;18.74;60.22;99601.38;4457555;32;20036;-86
2022/06/24 03:21:05;;;;;;;;;;;;;;;18.90;60.23;99600.22;4445607;32;19997;-86
2022/06/24 03:23:30;;;;;;;;;;;;;;;18.97;60.23;99604.13;4448206;32;20056;-86
2022/06/24 03:25:55;;;;;;;;;;;;;;;19.06;60.24;99599.16;4456998;32;20321;-87
2022/06/24 03:28:20;;;;;;;;;;;;;;;19.17;60.25;99599.28;4443966;32;19989;-86
2022/06/24 03:30:46;;;;;;;;;;;;;;;19.25;60.25;99604.84;4456384;32;27854;-87
2022/06/24 03:33:11;;;;;;;;;;;;;;;19.26;60.25;99603.91;4443998;32;20023;-86
2022/06/24 03:35:36;;;;;;;;;;;;;;;19.38;60.25;99602.16;4456938;32;19992;-87
2022/06/24 03:38:02;;;;;;;;;;;;;;;19.53;60.27;99598.47;4444206;32;20010;-87
2022/06/24 03:40:27;;;;;;;;;;;;;;;19.53;60.27;99599.34;4444028;32;20003;-86
2022/06/24 03:42:52;;;;;;;;;;;;;;;19.70;60.27;99600.78;4456930;32;19989;-87
2022/06/24 03:45:17;;;;;;;;;;;;;;;19.80;60.27;99596.50;4441474;32;20050;-86
2022/06/24 03:47:42;;;;;;;;;;;;;;;19.86;60.28;99596.06;4437212;32;23533;-86
2022/06/24 03:50:08;;;;;;;;;;;;;;;19.96;60.28;99604.16;4456892;32;20054;-87
2022/06/24 03:52:33;;;;;;;;;;;;;;;20.09;60.29;99601.44;4456157;32;24857;-86
2022/06/24 03:54:58;;;;;;;;;;;;;;;20.19;60.30;99603.31;4456386;32;20003;-86
2022/06/24 03:57:23;;;;;;;;;;;;;;;20.30;60.30;99605.16;4444689;32;20270;-86
2022/06/24 03:59:49;;;;;;;;;;;;;;;20.31;60.31;99596.25;4444087;32;19981;-86
2022/06/24 04:02:14;;;;;;;;;;;;;;;20.32;60.30;99597.94;4443372;32;20001;-87
2022/06/24 04:04:39;;;;;;;;;;;;;;;20.54;60.32;99598.06;4443584;32;20233;-85
2022/06/24 04:07:04;;;;;;;;;;;;;;;20.66;60.32;99600.75;4442922;32;31603;-88
2022/06/24 04:09:30;;;;;;;;;;;;;;;20.84;60.32;99604.66;4443465;32;19973;-87
2022/06/24 04:11:55;;;;;;;;;;;;;;;20.80;60.33;99598.72;4443495;32;19985;-87
2022/06/24 04:17:04;;;;;;;;;;;;;;;21.13;60.35;99607.69;4459301;32;20664;-86
2022/06/24 04:19:29;;;;;;;;;;;;;;;21.18;60.36;99612.59;4443695;32;27965;-86
2022/06/24 04:21:55;;;;;;;;;;;;;;;21.29;60.35;99607.34;4457135;32;20023;-87
2022/06/24 04:24:20;;;;;;;;;;;;;;;21.33;60.37;99607.00;4443612;32;28242;-86
2022/06/24 04:26:45;;;;;;;;;;;;;;;21.52;60.37;99610.81;4443698;32;26088;-86
2022/06/24 04:29:10;;;;;;;;;;;;;;;21.57;60.37;99601.56;4455676;32;22085;-86
2022/06/24 04:31:35;;;;;;;;;;;;;;;21.85;60.38;99599.34;4456241;32;22174;-86
2022/06/24 04:34:01;;;;;;;;;;;;;;;21.85;60.38;99602.84;4448578;32;29285;-87
2022/06/24 04:36:26;;;;;;;;;;;;;;;21.92;60.38;99609.31;4456508;32;19992;-86
2022/06/24 04:38:51;;;;;;;;;;;;;;;22.06;60.40;99605.59;4444690;32;33499;-86
2022/06/24 04:41:16;;;;;;;;;;;;;;;22.21;60.40;99604.31;4455365;32;30910;-87
2022/06/24 04:43:42;;;;;;;;;;;;;;;22.39;60.41;99603.75;4461966;32;20348;-86
2022/06/24 04:46:07;;;;;;;;;;;;;;;22.52;60.42;99607.09;4437589;32;20003;-87
2022/06/24 04:48:33;;;;;;;;;;;;;;;22.44;60.42;99598.91;4456141;32;19999;-86
2022/06/24 04:50:58;;;;;;;;;;;;;;;22.51;60.42;99602.75;4443103;32;20043;-87
2022/06/24 04:53:23;;;;;;;;;;;;;;;22.65;60.43;99600.59;4456327;32;20265;-88
2022/06/24 04:55:49;;;;;;;;;;;;;;;22.72;60.42;99605.41;4456152;32;19981;-86
2022/06/24 04:58:15;;;;;;;;;;;;;;;22.93;60.44;99612.41;4443955;32;20596;-87
2022/06/24 05:00:41;;;;;;;;;;;;;;;23.08;60.44;99606.75;4456238;32;23349;-87
2022/06/24 05:03:06;;;;;;;;;;;;;;;23.11;60.46;99603.84;4443811;32;19989;-87
2022/06/24 05:05:31;;;;;;;;;;;;;;;23.00;60.45;99607.44;4443245;32;24908;-87
2022/06/24 05:07:56;;;;;;;;;;;;;;;23.23;60.46;99603.63;4457451;32;20246;-87
2022/06/24 05:10:22;;;;;;;;;;;;;;;23.34;60.47;99605.34;4457770;32;20048;-86
2022/06/24 05:12:47;;;;;;;;;;;;;;;23.46;60.47;99598.97;4446224;32;20072;-87
2022/06/24 05:15:12;;;;;;;;;;;;;;;23.57;60.48;99596.22;4470578;32;20457;-87
2022/06/24 05:17:37;;;;;;;;;;;;;;;23.66;60.48;99599.03;4443474;32;30263;-87
2022/06/24 05:20:03;;;;;;;;;;;;;;;23.73;60.49;99601.03;4457123;32;19988;-86
2022/06/24 05:22:28;;;;;;;;;;;;;;;23.84;60.49;99608.03;4444156;32;20031;-87
2022/06/24 05:24:53;;;;;;;;;;;;;;;23.83;60.49;99606.34;4456799;32;19991;-86
2022/06/24 05:27:19;;;;;;;;;;;;;;;23.73;60.49;99602.84;4471119;32;20355;-87
2022/06/24 05:29:44;;;;;;;;;;;;;;;23.96;60.49;99603.47;4450534;32;19988;-87
2022/06/24 05:32:10;;;;;;;;;;;;;;;23.95;60.49;99602.63;4454601;32;22038;-86
2022/06/24 05:34:36;;;;;;;;;;;;;;;23.97;60.50;99603.31;4466454;32;19968;-87
2022/06/24 05:37:02;;;;;;;;;;;;;;;24.10;60.50;99597.72;4444215;32;23501;-86
2022/06/24 05:39:27;;;;;;;;;;;;;;;24.17;60.51;99613.00;4455554;32;20333;-87
2022/06/24 05:41:52;;;;;;;;;;;;;;;24.21;60.52;99610.06;4443155;32;28363;-86
2022/06/24 05:44:18;;;;;;;;;;;;;;;24.26;60.51;99616.62;4456157;32;28184;-86
2022/06/24 05:46:44;;;;;;;;;;;;;;;24.32;60.51;99617.91;4444028;32;20014;-86
2022/06/24 05:49:09;;;;;;;;;;;;;;;24.31;60.52;99621.56;4456647;32;20257;-86
2022/06/24 05:51:36;;;;;;;;;;;;;;;24.37;60.52;99621.88;4456725;32;19984;-87
2022/06/24 05:56:45;;;;;;;;;;;;;;;24.62;60.53;99620.44;4459319;32;19987;-86
2022/06/24 05:59:10;;;;;;;;;;;;;;;24.68;60.54;99619.87;4456201;32;19996;-87
2022/06/24 06:01:36;;;;;;;;;;;;;;;24.91;60.55;99624.88;4456786;32;19989;-86
2022/06/24 06:04:01;;;;;;;;;;;;;;;24.99;60.55;99619.69;4456684;32;20006;-87
2022/06/24 06:06:26;;;;;;;;;;;;;;;25.07;60.55;99614.47;4456732;32;19989;-87
2022/06/24 06:08:51;;;;;;;;;;;;;;;25.16;60.56;99620.78;4456100;32;25587;-87
2022/06/24 06:11:21;;;;;;;;;;;;;;;25.18;60.56;99609.00;4456735;32;19985;-86
2022/06/24 06:13:46;;;;;;;;;;;;;;;25.22;60.57;99614.88;4443686;32;20299;-87
2022/06/24 06:16:11;;;;;;;;;;;;;;;25.27;60.56;99605.44;4457993;32;19973;-87
2022/06/24 06:18:37;;;;;;;;;;;;;;;25.30;60.57;99609.63;4467826;32;28245;-86
2022/06/24 06:21:02;;;;;;;;;;;;;;;25.43;60.57;99609.31;4468615;32;19980;-86
2022/06/24 06:23:28;;;;;;;;;;;;;;;25.59;60.58;99614.84;4445612;32;20037;-87
2022/06/24 06:25:53;;;;;;;;;;;;;;;25.54;60.58;99599.28;4443530;32;19973;-86
2022/06/24 06:28:19;;;;;;;;;;;;;;;25.79;60.60;99604.94;4443025;32;20012;-87
2022/06/24 06:30:44;;;;;;;;;;;;;;;25.92;60.59;99600.09;4455780;32;19985;-87
2022/06/24 06:33:10;;;;;;;;;;;;;;;26.07;60.61;99600.41;4442533;32;27413;-87
2022/06/24 06:35:36;;;;;;;;;;;;;;;26.23;60.62;99597.87;4455890;32;19973;-87
2022/06/24 06:38:01;;;;;;;;;;;;;;;26.41;60.62;99597.91;4455601;32;23772;-87
2022/06/24 06:40:26;;;;;;;;;;;;;;;26.58;60.63;99592.56;4442518;32;24458;-87
2022/06/24 06:42:55;;;;;;;;;;;;;;;26.97;60.65;99589.47;4455511;32;24161;-87
2022/06/24 06:45:20;;;;;;;;;;;;;;;27.20;60.67;99587.13;4455881;32;20030;-87
2022/06/24 06:47:45;;;;;;;;;;;;;;;27.50;60.68;99591.97;4442591;32;20000;-86
2022/06/24 06:50:10;;;;;;;;;;;;;;;27.51;60.68;99590.13;4444374;32;20022;-87
2022/06/24 06:52:35;;;;;;;;;;;;;;;27.69;60.69;99582.87;4457366;32;25474;-87
2022/06/24 06:55:02;;;;;;;;;;;;;;;27.99;60.71;99577.94;4457155;32;23918;-87
2022/06/24 06:57:27;;;;;;;;;;;;;;;28.18;60.71;99576.78;4444881;32;20057;-87
2022/06/24 06:59:52;;;;;;;;;;;;;;;28.28;60.73;99572.97;4457749;32;19985;-87
2022/06/24 07:02:17;;;;;;;;;;;;;;;28.35;60.71;99579.31;4457852;32;19991;-87
2022/06/24 07:04:43;;;;;;;;;;;;;;;28.36;60.72;99575.63;4444389;32;23744;-87
2022/06/24 07:07:08;;;;;;;;;;;;;;;28.51;60.72;99572.28;4457553;32;20024;-86
2022/06/24 07:09:33;;;;;;;;;;;;;;;28.55;60.74;99574.47;4457697;32;20306;-87
2022/06/24 07:11:58;;;;;;;;;;;;;;;28.78;60.74;99571.94;4457721;32;24482;-87
2022/06/24 07:14:24;;;;;;;;;;;;;;;28.73;60.74;99576.97;4444096;32;27150;-86
2022/06/24 07:16:49;;;;;;;;;;;;;;;28.87;60.75;99570.94;4471575;32;23750;-86
2022/06/24 07:19:14;;;;;;;;;;;;;;;28.94;60.76;99571.94;4457153;32;24840;-87
2022/06/24 07:21:39;;;;;;;;;;;;;;;28.90;60.75;99570.59;4444585;32;20011;-87
2022/06/24 07:24:04;;;;;;;;;;;;;;;29.01;60.76;99577.44;4444151;32;26648;-87
2022/06/24 07:26:30;;;;;;;;;;;;;;;29.04;60.76;99569.88;4457487;32;20249;-87
2022/06/24 07:28:55;;;;;;;;;;;;;;;29.30;60.77;99571.47;4444152;32;22927;-87
2022/06/24 07:31:20;;;;;;;;;;;;;;;29.44;60.78;99568.06;4457811;32;23251;-86
2022/06/24 07:33:45;;;;;;;;;;;;;;;29.54;60.78;99562.50;4444532;32;19991;-86
2022/06/24 07:36:11;;;;;;;;;;;;;;;29.73;60.79;99564.75;4457330;32;20003;-86
2022/06/24 07:38:36;;;;;;;;;;;;;;;29.85;60.80;99563.38;4457356;32;19995;-87
2022/06/24 07:41:01;;;;;;;;;;;;;;;29.84;60.80;99558.19;4444473;32;19976;-86
2022/06/24 07:43:27;;;;;;;;;;;;;;;29.62;60.78;99552.59;4457345;32;19985;-87
2022/06/24 07:45:52;;;;;;;;;;;;;;;29.67;60.79;99554.75;4457558;32;19986;-86
2022/06/24 07:48:18;;;;;;;;;;;;;;;29.70;60.79;99565.13;4444495;32;20013;-86
2022/06/24 07:50:43;;;;;;;;;;;;;;;29.58;60.79;99559.31;4444032;32;22151;-87
2022/06/24 07:53:08;;;;;;;;;;;;;;;29.74;60.79;99557.53;4458079;32;20020;-87
2022/06/24 07:58:17;;;;;;;;;;;;;;;30.00;60.81;99552.69;4459780;32;20007;-88
2022/06/24 08:00:43;;;;;;;;;;;;;;;30.15;60.81;99542.88;4444308;32;19984;-88
2022/06/24 08:03:08;;;;;;;;;;;;;;;30.19;60.82;99541.50;4470851;32;20005;-88
2022/06/24 08:05:33;;;;;;;;;;;;;;;30.42;60.82;99537.94;4444226;32;19989;-88
2022/06/24 08:07:58;;;;;;;;;;;;;;;30.43;60.82;99539.62;4444151;32;22584;-89
2022/06/24 08:10:23;;;;;;;;;;;;;;;30.46;60.83;99534.72;4457562;32;20119;-89
2022/06/24 08:12:49;;;;;;;;;;;;;;;30.74;60.84;99537.66;4444304;32;27155;-89
2022/06/24 08:15:16;;;;;;;;;;;;;;;30.97;60.85;99540.25;4457693;32;20262;-89
2022/06/24 08:17:41;;;;;;;;;;;;;;;31.24;60.88;99544.19;4445092;32;20023;-89
2022/06/24 08:20:07;;;;;;;;;;;;;;;31.45;60.87;99544.25;4472054;32;20081;-89
2022/06/24 08:22:32;;;;;;;;;;;;;;;31.59;60.88;99541.72;4445226;32;19984;-89
2022/06/24 08:24:57;;;;;;;;;;;;;;;31.88;60.90;99540.81;4445248;32;21516;-90
2022/06/24 08:27:22;;;;;;;;;;;;;;;32.13;60.92;99528.63;4446029;32;20011;-90
2022/06/24 08:29:48;;;;;;;;;;;;;;;32.53;60.94;99534.41;4443973;32;27874;-88
2022/06/24 08:32:13;;;;;;;;;;;;;;;32.78;60.95;99529.37;4456558;32;27177;-87
2022/06/24 08:34:38;;;;;;;;;;;;;;;32.96;60.95;99525.19;4456399;32;28382;-88
2022/06/24 08:37:04;;;;;;;;;;;;;;;33.21;60.96;99530.09;4457041;32;19985;-87
2022/06/24 08:39:29;;;;;;;;;;;;;;;33.49;60.98;99519.22;4471321;32;19995;-87
2022/06/24 08:41:55;;;;;;;;;;;;;;;33.54;60.98;99520.28;4471401;32;19992;-87
2022/06/24 08:44:20;;;;;;;;;;;;;;;33.46;60.99;99517.75;4462350;32;20036;-88
2022/06/24 08:46:45;;;;;;;;;;;;;;;33.56;60.99;99522.75;4451809;32;19992;-87
2022/06/24 08:49:11;;;;;;;;;;;;;;;33.42;60.98;99526.47;4448366;32;19988;-87
2022/06/24 08:51:36;;;;;;;;;;;;;;;33.55;60.99;99513.84;4456462;32;24694;-87
2022/06/24 08:54:02;;;;;;;;;;;;;;;33.68;60.99;99520.31;4443886;32;19984;-87
2022/06/24 08:56:27;;;;;;;;;;;;;;;33.85;61.00;99516.25;4456951;32;19984;-87
2022/06/24 08:58:52;;;;;;;;;;;;;;;33.90;61.00;99515.63;4456503;32;24725;-87
2022/06/24 09:01:18;;;;;;;;;;;;;;;33.97;61.01;99516.44;4457015;32;20271;-86
2022/06/24 09:03:43;;;;;;;;;;;;;;;34.05;61.01;99510.84;4456814;32;20005;-87
2022/06/24 09:06:12;;;;;;;;;;;;;;;33.92;61.00;99518.94;4443924;32;20021;-86
2022/06/24 09:08:37;;;;;;;;;;;;;;;33.86;61.00;99515.19;4444890;32;19976;-86
2022/06/24 09:11:06;;;;;;;;;;;;;;;33.84;60.99;99511.88;4470567;32;22488;-87
2022/06/24 09:13:55;;;;;;;;;;;;;;;33.96;61.01;99510.22;4456552;32;20012;-87
2022/06/24 09:16:21;;;;;;;;;;;;;;;34.14;61.01;99505.03;4471296;32;20078;-87
2022/06/24 09:18:53;;;;;;;;;;;;;;;34.26;61.02;99507.94;4457029;32;20321;-87
2022/06/24 09:21:22;;;;;;;;;;;;;;;34.45;61.03;99504.44;4444168;32;19992;-87
2022/06/24 09:23:52;;;;;;;;;;;;;;;34.63;61.04;99506.50;4456828;32;20284;-87
2022/06/24 09:26:19;;;;;;;;;;;;;;;34.68;61.04;99505.87;4456944;32;20269;-86
2022/06/24 09:28:44;;;;;;;;;;;;;;;34.78;61.04;99503.53;4456811;32;20033;-87
2022/06/24 09:31:09;;;;;;;;;;;;;;;34.75;61.04;99498.56;4456750;32;24078;-86
2022/06/24 09:33:35;;;;;;;;;;;;;;;34.87;61.05;99504.19;4457699;32;20057;-85
2022/06/24 09:36:01;;;;;;;;;;;;;;;34.93;61.06;99497.94;4445991;32;20040;-86
2022/06/24 09:38:26;;;;;;;;;;;;;;;35.24;61.06;99499.88;4448559;32;20000;-86
2022/06/24 09:40:58;;;;;;;;;;;;;;;35.43;61.08;99503.59;4474719;32;19965;-86
2022/06/24 09:43:26;;;;;;;;;;;;;;;35.43;61.07;99496.28;4456814;32;20004;-85
2022/06/24 09:45:52;;;;;;;;;;;;;;;35.60;61.08;99502.03;4456773;32;19988;-85
2022/06/24 09:48:33;;;;;;;;;;;;;;;35.64;61.08;99503.25;4456430;32;20021;-85
2022/06/24 09:50:59;;;;;;;;;;;;;;;35.73;61.10;99498.41;4443650;32;19968;-85
2022/06/24 09:53:25;;;;;;;;;;;;;;;35.76;61.09;99493.41;4456447;32;20040;-85
2022/06/24 09:55:51;;;;;;;;;;;;;;;35.78;61.09;99493.19;4456702;32;20314;-85
2022/06/24 09:58:16;;;;;;;;;;;;;;;35.82;61.09;99494.41;4470751;32;20296;-85
2022/06/24 10:00:41;;;;;;;;;;;;;;;35.93;61.10;99496.44;4456191;32;20308;-85
2022/06/24 10:03:07;;;;;;;;;;;;;;;35.93;61.10;99491.84;4443434;32;20331;-85
2022/06/24 10:05:33;;;;;;;;;;;;;;;35.91;61.10;99491.22;4456599;32;19988;-84
2022/06/24 10:07:58;;;;;;;;;;;;;;;35.68;61.09;99489.06;4443492;32;20017;-85
2022/06/24 10:10:24;;;;;;;;;;;;;;;35.77;61.09;99486.94;4443061;32;26193;-85
2022/06/24 10:12:49;;;;;;;;;;;;;;;35.46;61.08;99484.19;4442737;32;26133;-85
2022/06/24 10:15:14;;;;;;;;;;;;;;;35.61;61.08;99482.03;4456294;32;19981;-84
2022/06/24 10:17:41;;;;;;;;;;;;;;;35.74;61.10;99475.72;4470490;32;20010;-85
2022/06/24 10:20:07;;;;;;;;;;;;;;;35.91;61.10;99472.28;4443394;32;19985;-85
2022/06/24 10:22:42;;;;;;;;;;;;;;;35.98;61.11;99473.06;4443192;32;19992;-86
2022/06/24 10:25:08;;;;;;;;;;;;;;;35.86;61.10;99471.28;4456360;32;19993;-85
2022/06/24 10:27:52;;;;;;;;;;;;;;;35.90;61.10;99461.66;4444656;32;20355;-85
2022/06/24 10:30:36;;;;;;;;;;;;;;;36.03;61.10;99464.28;4457733;32;19991;-85
2022/06/24 10:33:10;;;;;;;;;;;;;;;35.92;61.11;99457.69;4472470;32;20003;-85
2022/06/24 10:35:55;;;;;;;;;;;;;;;35.99;61.11;99446.81;4444820;32;20027;-85
2022/06/24 10:38:20;;;;;;;;;;;;;;;35.96;61.10;99441.81;4472493;32;19972;-86
2022/06/24 10:40:46;;;;;;;;;;;;;;;35.82;61.10;99442.94;4445287;32;20018;-85
2022/06/24 10:43:11;;;;;;;;;;;;;;;36.01;61.11;99439.28;4458061;32;20341;-85
2022/06/24 10:45:37;;;;;;;;;;;;;;;36.08;61.11;99440.03;4458401;32;22791;-84
2022/06/24 10:48:02;;;;;;;;;;;;;;;35.96;61.10;99439.09;4445012;32;19972;-85
2022/06/24 10:50:28;;;;;;;;;;;;;;;36.06;61.11;99431.31;4457865;32;20320;-85
2022/06/24 10:52:56;;;;;;;;;;;;;;;36.08;61.11;99429.22;4444789;32;19981;-85
2022/06/24 10:55:23;;;;;;;;;;;;;;;36.09;61.11;99435.47;4445058;32;19985;-84
2022/06/24 10:57:55;;;;;;;;;;;;;;;35.97;61.11;99425.34;4457641;32;19972;-85
2022/06/24 11:00:21;;;;;;;;;;;;;;;36.03;61.11;99426.34;4444826;32;20040;-85
2022/06/24 11:02:47;;;;;;;;;;;;;;;36.13;61.12;99426.66;4457784;32;20007;-84
2022/06/24 11:05:16;;;;;;;;;;;;;;;36.22;61.12;99424.50;4444890;32;19988;-85
2022/06/24 11:07:45;;;;;;;;;;;;;;;36.03;61.10;99426.34;4445297;32;19995;-85
2022/06/24 11:10:26;;;;;;;;;;;;;;;36.09;61.11;99424.63;4457825;32;20036;-85
2022/06/24 11:12:58;;;;;;;;;;;;;;;36.09;61.11;99417.31;4471987;32;19988;-85
2022/06/24 11:15:36;;;;;;;;;;;;;;;35.86;61.10;99414.41;4444946;32;19988;-86
2022/06/24 11:18:08;;;;;;;;;;;;;;;36.00;61.11;99415.97;4444549;32;20499;-85
2022/06/24 11:20:37;;;;;;;;;;;;;;;36.12;61.12;99414.16;4457456;32;20412;-85
2022/06/24 11:23:05;;;;;;;;;;;;;;;36.22;61.12;99400.13;4444694;32;20422;-85
2022/06/24 11:25:30;;;;;;;;;;;;;;;36.27;61.11;99402.97;4444571;32;20296;-85
2022/06/24 11:27:56;;;;;;;;;;;;;;;36.26;61.11;99396.72;4457588;32;20025;-84
2022/06/24 11:30:21;;;;;;;;;;;;;;;36.12;61.12;99392.47;4471569;32;19968;-85
2022/06/24 11:32:56;;;;;;;;;;;;;;;36.12;61.11;99383.53;4457685;32;20306;-85
2022/06/24 11:35:22;;;;;;;;;;;;;;;36.18;61.12;99393.47;4444474;32;19993;-85
2022/06/24 11:37:47;;;;;;;;;;;;;;;36.34;61.12;99387.50;4457582;32;20055;-85
2022/06/24 11:40:31;;;;;;;;;;;;;;;36.38;61.13;99387.88;4444594;32;20018;-85
2022/06/24 11:42:57;;;;;;;;;;;;;;;36.38;61.12;99379.75;4457342;32;19989;-85
2022/06/24 11:45:32;;;;;;;;;;;;;;;36.25;61.12;99375.28;4444550;32;20003;-85
2022/06/24 11:47:57;;;;;;;;;;;;;;;36.25;61.12;99380.69;4457496;32;19991;-85
2022/06/24 11:50:23;;;;;;;;;;;;;;;36.25;61.12;99386.94;4456737;32;29635;-85
2022/06/24 11:52:48;;;;;;;;;;;;;;;36.13;61.12;99377.06;4457419;32;20007;-84
2022/06/24 11:55:27;;;;;;;;;;;;;;;36.15;61.12;99385.78;4444454;32;20019;-85
2022/06/24 11:57:56;;;;;;;;;;;;;;;36.28;61.11;99370.22;4457415;32;19980;-85
2022/06/24 12:00:22;;;;;;;;;;;;;;;36.34;61.12;99362.28;4444632;32;19973;-85
2022/06/24 12:02:47;;;;;;;;;;;;;;;36.55;61.13;99364.53;4449223;32;20022;-84
2022/06/24 12:05:12;;;;;;;;;;;;;;;36.43;61.13;99356.31;4464485;32;23409;-85
2022/06/24 12:07:37;;;;;;;;;;;;;;;36.52;61.12;99367.72;4464764;32;20029;-85
2022/06/24 12:10:02;;;;;;;;;;;;;;;36.45;61.13;99356.94;4443772;32;29617;-85
2022/06/24 12:12:28;;;;;;;;;;;;;;;36.38;61.13;99350.75;4457268;32;20027;-85
2022/06/24 12:14:53;;;;;;;;;;;;;;;36.31;61.12;99349.19;4457218;32;20324;-85
2022/06/24 12:17:19;;;;;;;;;;;;;;;36.36;61.13;99347.44;4457195;32;20008;-86
2022/06/24 12:20:10;;;;;;;;;;;;;;;36.50;61.14;99350.84;4456318;32;34539;-85
2022/06/24 12:22:36;;;;;;;;;;;;;;;36.56;61.14;99348.03;4455609;32;19993;-85
2022/06/24 12:25:03;;;;;;;;;;;;;;;36.62;61.15;99346.28;4456867;32;20011;-85
2022/06/24 12:27:35;;;;;;;;;;;;;;;36.63;61.14;99344.41;4444455;32;20021;-85
2022/06/24 12:30:00;;;;;;;;;;;;;;;36.27;61.13;99341.47;4444366;32;19973;-85
2022/06/24 12:32:26;;;;;;;;;;;;;;;36.38;61.13;99339.91;4456289;32;29818;-85
2022/06/24 12:34:57;;;;;;;;;;;;;;;36.48;61.13;99348.34;4443956;32;19995;-85
2022/06/24 12:37:22;;;;;;;;;;;;;;;36.46;61.14;99349.66;4444402;32;20006;-85
2022/06/24 12:39:47;;;;;;;;;;;;;;;36.54;61.14;99341.19;4443641;32;25221;-85
2022/06/24 12:42:13;;;;;;;;;;;;;;;36.62;61.14;99332.75;4443512;32;28282;-85
2022/06/24 12:44:39;;;;;;;;;;;;;;;36.51;61.13;99326.22;4457195;32;20090;-85
2022/06/24 12:52:33;;;;;;;;;;;;;;;36.50;61.13;99327.28;4459271;32;20030;-85
2022/06/24 12:54:58;;;;;;;;;;;;;;;36.36;61.13;99323.03;4471274;32;19992;-85
2022/06/24 12:57:23;;;;;;;;;;;;;;;36.40;61.13;99307.16;4444068;32;19985;-85
2022/06/24 12:59:48;;;;;;;;;;;;;;;36.24;61.12;99314.81;4457385;32;20012;-85
2022/06/24 13:02:14;;;;;;;;;;;;;;;36.21;61.12;99307.16;4456950;32;20008;-85